createdAt,value
2018-11-04T00:00:47.828Z,8.45
2018-11-04T00:03:16.673Z,8.45
2018-11-04T00:05:45.894Z,8.45
2018-11-04T00:08:14.800Z,8.49
2018-11-04T00:10:43.627Z,8.52
2018-11-04T00:13:12.869Z,8.52
2018-11-04T00:15:41.871Z,8.52
2018-11-04T00:18:11.071Z,8.54
2018-11-04T00:20:40.176Z,8.52
2018-11-04T00:23:09.067Z,8.53
2018-11-04T00:25:38.281Z,8.55
2018-11-04T00:28:07.089Z,8.60
2018-11-04T00:30:35.965Z,8.60
2018-11-04T00:33:04.754Z,8.61
2018-11-04T00:35:33.528Z,8.63
2018-11-04T00:38:02.355Z,8.65
2018-11-04T00:40:31.266Z,8.64
2018-11-04T00:43:00.106Z,8.63
2018-11-04T00:45:29.042Z,8.69
2018-11-04T00:47:58.046Z,8.70
2018-11-04T00:50:26.807Z,8.66
2018-11-04T00:52:55.706Z,8.66
2018-11-04T00:55:24.539Z,8.63
2018-11-04T00:57:53.408Z,8.62
2018-11-04T01:00:22.214Z,8.64
2018-11-04T01:02:58.205Z,8.66
2018-11-04T01:05:27.072Z,8.71
2018-11-04T01:07:55.992Z,8.68
2018-11-04T01:10:25.220Z,8.66
2018-11-04T01:12:54.065Z,8.65
2018-11-04T01:15:22.870Z,8.65
2018-11-04T01:17:51.944Z,8.66
2018-11-04T01:20:20.693Z,8.67
2018-11-04T01:22:49.824Z,8.65
2018-11-04T01:25:18.788Z,8.66
2018-11-04T01:27:47.578Z,8.66
2018-11-04T01:30:16.471Z,8.67
2018-11-04T01:32:45.619Z,8.71
2018-11-04T01:35:14.552Z,8.66
2018-11-04T01:37:43.246Z,8.66
2018-11-04T01:40:12.079Z,8.65
2018-11-04T01:42:40.847Z,8.64
2018-11-04T01:45:11.441Z,8.64
2018-11-04T01:47:40.589Z,8.69
2018-11-04T01:50:12.745Z,8.64
2018-11-04T01:52:41.507Z,8.65
2018-11-04T01:55:11.216Z,8.67
2018-11-04T01:57:40.292Z,8.68
2018-11-04T02:00:16.479Z,8.65
2018-11-04T02:02:45.975Z,8.65
2018-11-04T02:05:15.234Z,8.68
2018-11-04T02:07:44.436Z,8.68
2018-11-04T02:10:14.478Z,8.70
2018-11-04T02:12:43.559Z,8.70
2018-11-04T02:15:13.377Z,8.76
2018-11-04T02:17:42.162Z,8.75
2018-11-04T02:20:12.292Z,8.79
2018-11-04T02:22:41.718Z,8.76
2018-11-04T02:25:11.768Z,8.74
2018-11-04T02:27:40.754Z,8.76
2018-11-04T02:30:12.262Z,8.76
2018-11-04T02:32:41.537Z,8.79
2018-11-04T02:35:10.424Z,8.78
2018-11-04T02:37:39.696Z,8.76
2018-11-04T02:40:08.597Z,8.79
2018-11-04T02:42:37.732Z,8.81
2018-11-04T02:45:07.391Z,8.83
2018-11-04T02:47:36.552Z,8.81
2018-11-04T02:50:05.681Z,8.83
2018-11-04T02:52:34.616Z,8.84
2018-11-04T02:55:03.458Z,8.84
2018-11-04T02:57:32.248Z,8.82
2018-11-04T03:00:01.119Z,8.82
2018-11-04T03:02:29.887Z,8.84
2018-11-04T03:04:58.983Z,8.86
2018-11-04T03:07:27.720Z,8.91
2018-11-04T03:09:56.499Z,8.95
2018-11-04T03:12:25.740Z,9.03
2018-11-04T03:14:54.588Z,8.98
2018-11-04T03:17:23.401Z,8.98
2018-11-04T03:19:52.211Z,8.97
2018-11-04T03:22:20.975Z,8.99
2018-11-04T03:24:49.930Z,8.95
2018-11-04T03:27:18.631Z,8.96
2018-11-04T03:29:47.484Z,8.99
2018-11-04T03:32:17.674Z,9.00
2018-11-04T03:34:46.535Z,8.98
2018-11-04T03:37:15.378Z,9.01
2018-11-04T03:39:44.193Z,9.00
2018-11-04T03:42:12.999Z,8.99
2018-11-04T03:44:41.852Z,8.97
2018-11-04T03:47:10.680Z,8.99
2018-11-04T03:49:39.547Z,9.00
2018-11-04T03:52:08.622Z,9.03
2018-11-04T03:54:37.559Z,9.03
2018-11-04T03:57:06.688Z,9.04
2018-11-04T03:59:35.480Z,9.02
2018-11-04T04:02:04.383Z,9.05
2018-11-04T04:04:33.244Z,9.01
2018-11-04T04:07:02.636Z,9.02
2018-11-04T04:09:31.402Z,9.05
2018-11-04T04:12:00.194Z,9.07
2018-11-04T04:14:29.238Z,9.09
2018-11-04T04:16:58.135Z,9.09
2018-11-04T04:19:27.007Z,9.10
2018-11-04T04:21:56.098Z,9.09
2018-11-04T04:24:25.018Z,9.09
2018-11-04T04:26:53.755Z,9.09
2018-11-04T04:29:22.615Z,9.09
2018-11-04T04:31:51.377Z,9.09
2018-11-04T04:34:20.198Z,9.08
2018-11-04T04:36:49.214Z,9.09
2018-11-04T04:39:18.119Z,9.11
2018-11-04T04:41:47.274Z,9.13
2018-11-04T04:44:16.449Z,9.14
2018-11-04T04:46:45.512Z,9.11
2018-11-04T04:49:14.809Z,9.14
2018-11-04T04:51:43.617Z,9.13
2018-11-04T04:54:12.790Z,9.14
2018-11-04T04:56:41.638Z,9.16
2018-11-04T04:59:10.590Z,9.18
2018-11-04T05:01:39.576Z,9.19
2018-11-04T05:04:08.374Z,9.21
2018-11-04T05:06:37.446Z,9.20
2018-11-04T05:09:07.402Z,9.21
2018-11-04T05:11:36.680Z,9.23
2018-11-04T05:14:05.509Z,9.26
2018-11-04T05:16:34.628Z,9.26
2018-11-04T05:19:03.313Z,9.30
2018-11-04T05:21:32.437Z,9.30
2018-11-04T05:24:01.202Z,9.27
2018-11-04T05:26:30.048Z,9.25
2018-11-04T05:28:58.842Z,9.26
2018-11-04T05:31:27.673Z,9.24
2018-11-04T05:33:56.495Z,9.24
2018-11-04T05:36:25.280Z,9.25
2018-11-04T05:38:54.051Z,9.29
2018-11-04T05:41:22.904Z,9.32
2018-11-04T05:43:51.763Z,9.37
2018-11-04T05:46:20.535Z,9.32
2018-11-04T05:48:49.335Z,9.32
2018-11-04T05:51:18.166Z,9.38
2018-11-04T05:53:46.964Z,9.31
2018-11-04T05:56:16.100Z,9.33
2018-11-04T05:58:45.026Z,9.38
2018-11-04T06:01:13.853Z,9.38
2018-11-04T06:03:42.785Z,9.39
2018-11-04T06:06:12.440Z,9.37
2018-11-04T06:08:41.251Z,9.34
2018-11-04T06:11:10.379Z,9.37
2018-11-04T06:13:39.159Z,9.39
2018-11-04T06:16:08.333Z,9.37
2018-11-04T06:18:37.145Z,9.39
2018-11-04T06:21:06.380Z,9.42
2018-11-04T06:23:35.243Z,9.44
2018-11-04T06:26:04.121Z,9.42
2018-11-04T06:28:32.974Z,9.41
2018-11-04T06:31:01.807Z,9.41
2018-11-04T06:33:30.622Z,9.46
2018-11-04T06:35:59.463Z,9.48
2018-11-04T06:38:28.251Z,9.46
2018-11-04T06:40:57.286Z,9.48
2018-11-04T06:43:26.373Z,9.49
2018-11-04T06:45:55.579Z,9.49
2018-11-04T06:48:24.746Z,9.50
2018-11-04T06:50:53.813Z,9.52
2018-11-04T06:53:22.737Z,9.57
2018-11-04T06:55:51.524Z,9.54
2018-11-04T06:58:20.389Z,9.54
2018-11-04T07:00:49.563Z,9.57
2018-11-04T07:03:18.882Z,9.58
2018-11-04T07:05:51.051Z,9.60
2018-11-04T07:08:20.083Z,9.63
2018-11-04T07:10:49.207Z,9.64
2018-11-04T07:13:18.022Z,9.67
2018-11-04T07:15:46.846Z,9.72
2018-11-04T07:18:15.684Z,9.77
2018-11-04T07:20:44.468Z,9.77
2018-11-04T07:23:13.255Z,9.78
2018-11-04T07:25:42.075Z,9.80
2018-11-04T07:28:11.290Z,9.85
2018-11-04T07:30:40.080Z,9.87
2018-11-04T07:33:08.923Z,9.86
2018-11-04T07:35:37.860Z,9.84
2018-11-04T07:38:06.649Z,9.88
2018-11-04T07:40:35.661Z,9.83
2018-11-04T07:43:04.586Z,9.82
2018-11-04T07:45:33.754Z,9.82
2018-11-04T07:48:02.704Z,9.84
2018-11-04T07:50:31.537Z,9.85
2018-11-04T07:53:00.367Z,9.87
2018-11-04T07:55:29.176Z,9.89
2018-11-04T07:57:58.281Z,9.92
2018-11-04T08:00:27.382Z,9.90
2018-11-04T08:02:56.388Z,9.99
2018-11-04T08:05:25.665Z,9.99
2018-11-04T08:07:54.571Z,10.02
2018-11-04T08:10:23.382Z,10.07
2018-11-04T08:12:52.173Z,10.08
2018-11-04T08:15:21.331Z,10.12
2018-11-04T08:17:50.186Z,10.11
2018-11-04T08:20:19.021Z,10.13
2018-11-04T08:22:47.951Z,10.19
2018-11-04T08:25:16.869Z,10.17
2018-11-04T08:27:45.981Z,10.18
2018-11-04T08:30:14.900Z,10.25
2018-11-04T08:32:43.943Z,10.26
2018-11-04T08:35:12.877Z,10.29
2018-11-04T08:37:41.814Z,10.34
2018-11-04T08:40:10.807Z,10.36
2018-11-04T08:42:39.493Z,10.42
2018-11-04T08:45:08.851Z,10.46
2018-11-04T08:47:37.620Z,10.45
2018-11-04T08:50:08.311Z,10.41
2018-11-04T08:52:37.253Z,10.44
2018-11-04T08:55:07.105Z,10.46
2018-11-04T08:57:35.974Z,10.46
2018-11-04T09:00:05.605Z,10.50
2018-11-04T09:02:34.570Z,10.52
2018-11-04T09:05:03.430Z,10.53
2018-11-04T09:07:32.296Z,10.53
2018-11-04T09:10:01.274Z,10.55
2018-11-04T09:12:30.251Z,10.57
2018-11-04T09:14:59.346Z,10.59
2018-11-04T09:17:28.286Z,10.64
2018-11-04T09:19:57.089Z,10.70
2018-11-04T09:22:26.091Z,10.69
2018-11-04T09:24:54.855Z,10.70
2018-11-04T09:27:23.853Z,10.72
2018-11-04T09:29:52.802Z,10.79
2018-11-04T09:32:21.878Z,10.82
2018-11-04T09:34:50.911Z,10.80
2018-11-04T09:37:19.845Z,10.83
2018-11-04T09:39:48.797Z,10.81
2018-11-04T09:42:18.189Z,10.83
2018-11-04T09:44:47.057Z,10.87
2018-11-04T09:47:15.921Z,10.86
2018-11-04T09:49:44.802Z,10.89
2018-11-04T09:52:13.700Z,10.95
2018-11-04T09:54:43.249Z,10.93
2018-11-04T09:57:12.154Z,10.92
2018-11-04T09:59:40.933Z,10.96
2018-11-04T10:02:09.783Z,10.94
2018-11-04T10:04:38.965Z,11.02
2018-11-04T10:07:08.344Z,11.04
2018-11-04T10:09:37.047Z,10.98
2018-11-04T10:12:05.921Z,10.98
2018-11-04T10:14:34.762Z,10.94
2018-11-04T10:17:03.685Z,10.94
2018-11-04T10:19:32.900Z,10.93
2018-11-04T10:22:01.983Z,10.92
2018-11-04T10:24:30.809Z,10.95
2018-11-04T10:26:59.987Z,10.95
2018-11-04T10:29:28.855Z,10.96
2018-11-04T10:31:57.622Z,10.97
2018-11-04T10:34:26.491Z,10.97
2018-11-04T10:36:55.414Z,11.03
2018-11-04T10:39:24.414Z,11.03
2018-11-04T10:41:53.671Z,11.08
2018-11-04T10:44:22.535Z,11.06
2018-11-04T10:46:51.632Z,11.07
2018-11-04T10:49:20.581Z,11.07
2018-11-04T10:51:49.350Z,11.12
2018-11-04T10:54:18.350Z,11.17
2018-11-04T10:56:47.218Z,11.20
2018-11-04T10:59:16.140Z,11.20
2018-11-04T11:01:45.059Z,11.26
2018-11-04T11:04:13.980Z,11.23
2018-11-04T11:06:42.956Z,11.17
2018-11-04T11:09:12.071Z,11.15
2018-11-04T11:11:41.502Z,11.14
2018-11-04T11:14:10.327Z,11.21
2018-11-04T11:16:39.327Z,11.19
2018-11-04T11:19:08.261Z,11.21
2018-11-04T11:21:37.462Z,11.23
2018-11-04T11:24:06.412Z,11.29
2018-11-04T11:26:35.298Z,11.33
2018-11-04T11:29:04.197Z,11.28
2018-11-04T11:31:33.134Z,11.29
2018-11-04T11:34:02.411Z,11.25
2018-11-04T11:36:31.285Z,11.24
2018-11-04T11:39:00.215Z,11.28
2018-11-04T11:41:29.261Z,11.26
2018-11-04T11:43:58.316Z,11.25
2018-11-04T11:46:27.514Z,11.27
2018-11-04T11:48:57.247Z,11.31
2018-11-04T11:51:26.237Z,11.31
2018-11-04T11:53:55.596Z,11.34
2018-11-04T11:56:24.440Z,11.36
2018-11-04T11:58:53.801Z,11.35
2018-11-04T12:01:22.775Z,11.26
2018-11-04T12:03:51.784Z,11.43
2018-11-04T12:06:20.660Z,11.40
2018-11-04T12:08:49.548Z,11.48
2018-11-04T12:11:18.523Z,11.45
2018-11-04T12:13:47.610Z,11.45
2018-11-04T12:16:16.476Z,11.45
2018-11-04T12:18:45.270Z,11.48
2018-11-04T12:21:14.171Z,11.48
2018-11-04T12:23:43.393Z,11.45
2018-11-04T12:26:12.188Z,11.45
2018-11-04T12:28:41.049Z,11.41
2018-11-04T12:31:10.097Z,11.36
2018-11-04T12:33:39.064Z,11.42
2018-11-04T12:36:08.019Z,11.36
2018-11-04T12:38:37.032Z,11.40
2018-11-04T12:41:06.132Z,11.45
2018-11-04T12:43:35.093Z,11.52
2018-11-04T12:46:04.335Z,11.51
2018-11-04T12:48:33.504Z,11.49
2018-11-04T12:51:02.697Z,11.51
2018-11-04T12:53:31.759Z,11.53
2018-11-04T12:56:00.825Z,11.52
2018-11-04T12:58:29.713Z,11.50
2018-11-04T13:00:58.725Z,11.44
2018-11-04T13:03:27.985Z,11.45
2018-11-04T13:05:56.928Z,11.45
2018-11-04T13:08:25.948Z,11.46
2018-11-04T13:10:54.878Z,11.45
2018-11-04T13:13:24.666Z,11.45
2018-11-04T13:15:53.608Z,11.40
2018-11-04T13:18:22.505Z,11.40
2018-11-04T13:20:51.808Z,11.38
2018-11-04T13:23:20.771Z,11.40
2018-11-04T13:25:49.738Z,11.38
2018-11-04T13:28:18.927Z,11.40
2018-11-04T13:30:48.033Z,11.37
2018-11-04T13:33:17.122Z,11.38
2018-11-04T13:35:46.180Z,11.37
2018-11-04T13:38:14.993Z,11.35
2018-11-04T13:40:44.085Z,11.39
2018-11-04T13:43:13.338Z,11.40
2018-11-04T13:45:42.944Z,11.40
2018-11-04T13:48:12.232Z,11.41
2018-11-04T13:50:41.138Z,11.41
2018-11-04T13:53:10.229Z,11.40
2018-11-04T13:55:39.284Z,11.40
2018-11-04T13:58:08.203Z,11.38
2018-11-04T14:00:37.414Z,11.32
2018-11-04T14:03:06.554Z,11.34
2018-11-04T14:05:35.429Z,11.36
2018-11-04T14:08:04.397Z,11.34
2018-11-04T14:10:33.298Z,11.33
2018-11-04T14:13:03.210Z,11.30
2018-11-04T14:15:32.281Z,11.29
2018-11-04T14:18:01.344Z,11.26
2018-11-04T14:20:30.980Z,11.33
2018-11-04T14:22:59.877Z,11.35
2018-11-04T14:25:28.818Z,11.33
2018-11-04T14:27:57.726Z,11.33
2018-11-04T14:30:26.963Z,11.31
2018-11-04T14:32:55.813Z,11.30
2018-11-04T14:35:24.685Z,11.31
2018-11-04T14:37:53.601Z,11.28
2018-11-04T14:40:22.468Z,11.25
2018-11-04T14:42:51.865Z,11.35
2018-11-04T14:45:20.784Z,11.32
2018-11-04T14:47:49.593Z,11.29
2018-11-04T14:50:19.857Z,11.26
2018-11-04T14:52:49.237Z,11.28
2018-11-04T14:55:18.132Z,11.28
2018-11-04T14:57:47.492Z,11.29
2018-11-04T15:00:17.222Z,11.26
2018-11-04T15:02:46.307Z,11.28
2018-11-04T15:05:15.170Z,11.25
2018-11-04T15:07:44.016Z,11.21
2018-11-04T15:10:13.935Z,11.26
2018-11-04T15:12:42.850Z,11.20
2018-11-04T15:15:15.052Z,11.20
2018-11-04T15:17:43.945Z,11.21
2018-11-04T15:20:13.797Z,11.24
2018-11-04T15:22:46.792Z,11.22
2018-11-04T15:25:16.913Z,11.21
2018-11-04T15:27:46.077Z,11.21
2018-11-04T15:30:15.075Z,11.18
2018-11-04T15:32:44.370Z,11.15
2018-11-04T15:35:15.085Z,11.15
2018-11-04T15:37:44.368Z,11.18
2018-11-04T15:40:14.564Z,11.18
2018-11-04T15:42:43.380Z,11.13
2018-11-04T15:45:13.646Z,11.11
2018-11-04T15:47:42.738Z,11.12
2018-11-04T15:50:15.084Z,11.19
2018-11-04T15:52:44.222Z,11.20
2018-11-04T15:55:13.264Z,11.20
2018-11-04T15:57:42.452Z,11.19
2018-11-04T16:00:12.888Z,11.18
2018-11-04T16:02:41.888Z,11.17
2018-11-04T16:05:17.460Z,11.21
2018-11-04T16:07:46.804Z,11.20
2018-11-04T16:10:16.558Z,11.16
2018-11-04T16:12:45.694Z,11.20
2018-11-04T16:15:15.544Z,11.22
2018-11-04T16:17:45.313Z,11.16
2018-11-04T16:20:15.362Z,11.17
2018-11-04T16:22:44.875Z,11.17
2018-11-04T16:25:14.423Z,11.14
2018-11-04T16:27:43.787Z,11.14
2018-11-04T16:30:14.096Z,11.15
2018-11-04T16:32:42.937Z,11.11
2018-11-04T16:35:13.027Z,11.11
2018-11-04T16:37:42.962Z,11.17
2018-11-04T16:40:12.264Z,11.17
2018-11-04T16:42:41.223Z,11.18
2018-11-04T16:45:12.721Z,11.14
2018-11-04T16:47:41.619Z,11.13
2018-11-04T16:50:11.628Z,11.15
2018-11-04T16:52:40.987Z,11.16
2018-11-04T16:55:10.913Z,11.19
2018-11-04T16:57:40.035Z,11.19
2018-11-04T17:00:10.157Z,11.20
2018-11-04T17:02:40.081Z,11.22
2018-11-04T17:05:10.490Z,11.21
2018-11-04T17:07:39.754Z,11.16
2018-11-04T17:10:09.683Z,11.18
2018-11-04T17:12:38.953Z,11.23
2018-11-04T17:15:10.080Z,11.18
2018-11-04T17:17:39.014Z,11.18
2018-11-04T17:20:10.800Z,11.17
2018-11-04T17:22:39.663Z,11.24
2018-11-04T17:25:08.970Z,11.22
2018-11-04T17:27:37.958Z,11.22
2018-11-04T17:30:10.591Z,11.24
2018-11-04T17:32:46.228Z,11.25
2018-11-04T17:35:16.065Z,11.28
2018-11-04T17:37:45.402Z,11.26
2018-11-04T17:40:15.256Z,11.29
2018-11-04T17:42:44.334Z,11.25
2018-11-04T17:45:14.641Z,11.24
2018-11-04T17:47:43.549Z,11.33
2018-11-04T17:50:16.757Z,11.37
2018-11-04T17:52:45.968Z,11.26
2018-11-04T17:55:15.460Z,11.28
2018-11-04T17:57:44.789Z,11.30
2018-11-04T18:00:14.902Z,11.25
2018-11-04T18:02:44.226Z,11.27
2018-11-04T18:05:13.782Z,11.28
2018-11-04T18:07:43.708Z,11.29
2018-11-04T18:10:13.668Z,11.28
2018-11-04T18:12:42.988Z,11.31
2018-11-04T18:15:12.724Z,11.33
2018-11-04T18:17:41.538Z,11.31
2018-11-04T18:20:11.808Z,11.28
2018-11-04T18:22:41.075Z,11.31
2018-11-04T18:25:10.902Z,11.33
2018-11-04T18:27:39.697Z,11.29
2018-11-04T18:30:10.660Z,11.32
2018-11-04T18:32:39.505Z,11.32
2018-11-04T18:35:11.594Z,11.32
2018-11-04T18:37:40.713Z,11.32
2018-11-04T18:40:11.803Z,11.31
2018-11-04T18:42:41.218Z,11.27
2018-11-04T18:45:11.230Z,11.28
2018-11-04T18:47:40.303Z,11.32
2018-11-04T18:50:10.418Z,11.32
2018-11-04T18:52:39.697Z,11.31
2018-11-04T18:55:09.953Z,11.32
2018-11-04T18:57:39.062Z,11.30
2018-11-04T19:00:10.397Z,11.29
2018-11-04T19:02:39.222Z,11.32
2018-11-04T19:05:09.113Z,11.30
2018-11-04T19:07:37.984Z,11.34
2018-11-04T19:10:08.762Z,11.34
2018-11-04T19:12:37.866Z,11.33
2018-11-04T19:15:07.649Z,11.35
2018-11-04T19:17:37.205Z,11.35
2018-11-04T19:20:07.764Z,11.41
2018-11-04T19:22:42.851Z,11.39
2018-11-04T19:25:13.260Z,11.35
2018-11-04T19:27:42.494Z,11.42
2018-11-04T19:30:13.975Z,11.42
2018-11-04T19:32:43.212Z,11.39
2018-11-04T19:35:12.800Z,11.38
2018-11-04T19:37:42.104Z,11.38
2018-11-04T19:40:12.969Z,11.42
2018-11-04T19:42:41.943Z,11.46
2018-11-04T19:45:10.822Z,11.45
2018-11-04T19:47:40.058Z,11.42
2018-11-04T19:50:11.271Z,11.39
2018-11-04T19:52:40.412Z,11.40
2018-11-04T19:55:09.931Z,11.38
2018-11-04T19:57:38.823Z,11.35
2018-11-04T20:00:10.109Z,11.34
2018-11-04T20:02:39.034Z,11.36
2018-11-04T20:05:09.553Z,11.38
2018-11-04T20:07:38.475Z,11.35
2018-11-04T20:10:13.821Z,11.34
2018-11-04T20:12:48.138Z,11.33
2018-11-04T20:15:17.528Z,11.32
2018-11-04T20:17:47.276Z,11.33
2018-11-04T20:20:18.026Z,11.40
2018-11-04T20:22:46.843Z,11.35
2018-11-04T20:25:20.906Z,11.29
2018-11-04T20:27:49.752Z,11.31
2018-11-04T20:30:18.829Z,11.37
2018-11-04T20:32:53.062Z,11.36
2018-11-04T20:35:21.898Z,11.35
2018-11-04T20:37:50.692Z,11.31
2018-11-04T20:40:25.024Z,11.29
2018-11-04T20:42:53.967Z,11.33
2018-11-04T20:45:22.795Z,11.35
2018-11-04T20:47:56.782Z,11.32
2018-11-04T20:50:30.909Z,11.35
2018-11-04T20:52:59.795Z,11.36
2018-11-04T20:55:33.920Z,11.40
2018-11-04T20:58:02.928Z,11.37
2018-11-04T21:00:32.054Z,11.36
2018-11-04T21:03:01.213Z,11.46
2018-11-04T21:05:30.014Z,11.45
2018-11-04T21:07:59.263Z,11.43
2018-11-04T21:10:28.089Z,11.40
2018-11-04T21:12:56.920Z,11.48
2018-11-04T21:15:25.824Z,11.55
2018-11-04T21:17:54.692Z,11.53
2018-11-04T21:20:23.684Z,11.54
2018-11-04T21:22:52.628Z,11.48
2018-11-04T21:25:21.835Z,11.50
2018-11-04T21:27:50.680Z,11.43
2018-11-04T21:30:19.905Z,11.43
2018-11-04T21:32:49.092Z,11.46
2018-11-04T21:35:18.080Z,11.48
2018-11-04T21:37:47.035Z,11.46
2018-11-04T21:40:15.873Z,11.46
2018-11-04T21:42:44.954Z,11.48
2018-11-04T21:45:15.147Z,11.49
2018-11-04T21:47:44.688Z,11.48
2018-11-04T21:50:13.525Z,11.46
2018-11-04T21:52:42.548Z,11.50
2018-11-04T21:55:12.760Z,11.48
2018-11-04T21:57:42.705Z,11.47
2018-11-04T22:00:13.888Z,11.47
2018-11-04T22:02:43.213Z,11.45
2018-11-04T22:05:12.672Z,11.45
2018-11-04T22:07:42.969Z,11.48
2018-11-04T22:10:14.981Z,11.54
2018-11-04T22:12:44.148Z,11.53
2018-11-04T22:15:13.290Z,11.50
2018-11-04T22:17:42.856Z,11.49
2018-11-04T22:20:12.972Z,11.47
2018-11-04T22:22:41.856Z,11.54
2018-11-04T22:25:11.583Z,11.51
2018-11-04T22:27:40.855Z,11.50
2018-11-04T22:30:11.384Z,11.48
2018-11-04T22:32:40.381Z,11.48
2018-11-04T22:35:10.871Z,11.49
2018-11-04T22:37:39.957Z,11.50
2018-11-04T22:40:10.394Z,11.55
2018-11-04T22:42:39.976Z,11.54
2018-11-04T22:45:10.775Z,11.55
2018-11-04T22:47:40.145Z,11.58
2018-11-04T22:50:11.053Z,11.56
2018-11-04T22:52:42.479Z,11.53
2018-11-04T22:55:12.454Z,11.51
2018-11-04T22:57:41.888Z,11.48
2018-11-04T23:00:17.095Z,11.46
2018-11-04T23:02:47.331Z,11.49
2018-11-04T23:05:21.639Z,11.47
2018-11-04T23:07:50.664Z,11.45
2018-11-04T23:10:19.939Z,11.50
2018-11-04T23:12:48.801Z,11.49
2018-11-04T23:15:17.606Z,11.51
2018-11-04T23:17:46.454Z,11.51
2018-11-04T23:20:15.365Z,11.52
2018-11-04T23:22:44.244Z,11.49
2018-11-04T23:25:14.667Z,11.51
2018-11-04T23:27:44.223Z,11.53
2018-11-04T23:30:18.523Z,11.52
2018-11-04T23:32:48.142Z,11.50
2018-11-04T23:35:16.941Z,11.53
2018-11-04T23:37:46.059Z,11.59
2018-11-04T23:40:14.987Z,11.53
2018-11-04T23:42:43.890Z,11.51
2018-11-04T23:45:13.983Z,11.51
2018-11-04T23:47:43.158Z,11.55
2018-11-04T23:50:14.206Z,11.51
2018-11-04T23:52:43.788Z,11.54
2018-11-04T23:55:13.430Z,11.56
2018-11-04T23:57:42.351Z,11.57
